Time;durP1;ratioP1;P1;durP2;ratioP2;P2;SDS_P1;SDS_P2;PMS_P1;PMS_P2;Temp;Humidity;BMP_temperature;BMP_pressure;BME280_temperature;BME280_humidity;BME280_pressure;Samples;Min_cycle;Max_cycle;Signal;HPM_P1;HPM_P2
2021/06/06 00:00:32;;;;;;;56.30;32.13;;;15.00;99.90;;;;;;4993485;28;20038;-87
2021/06/06 00:03:00;;;;;;;58.63;33.03;;;15.10;99.90;;;;;;4992766;28;20045;-86
2021/06/06 00:05:44;;;;;;;74.88;36.75;;;15.00;99.90;;;;;;4992798;28;20642;-87
2021/06/06 00:08:11;;;;;;;63.33;35.33;;;15.10;99.90;;;;;;4992675;28;20058;-87
2021/06/06 00:10:39;;;;;;;64.93;33.95;;;15.10;99.90;;;;;;4992672;28;20034;-86
2021/06/06 00:13:05;;;;;;;68.60;35.75;;;15.10;99.90;;;;;;4992338;28;20035;-86
2021/06/06 00:15:32;;;;;;;70.22;37.05;;;15.10;99.90;;;;;;4977262;28;20034;-86
2021/06/06 00:17:59;;;;;;;70.00;35.22;;;15.20;99.90;;;;;;4960711;28;20034;-86
2021/06/06 00:20:27;;;;;;;74.57;37.03;;;15.10;99.90;;;;;;4968046;28;20043;-86
2021/06/06 00:22:57;;;;;;;76.25;37.00;;;15.10;99.90;;;;;;4952492;28;20047;-86
2021/06/06 00:25:26;;;;;;;70.40;36.42;;;15.10;99.90;;;;;;4995387;28;20479;-87
2021/06/06 00:27:52;;;;;;;75.60;36.13;;;15.00;99.90;;;;;;4984937;28;20066;-85
2021/06/06 00:30:20;;;;;;;82.80;35.33;;;15.00;99.90;;;;;;4980531;29;20039;-86
2021/06/06 00:32:47;;;;;;;67.43;34.35;;;15.00;99.90;;;;;;4975374;28;20062;-87
2021/06/06 00:35:15;;;;;;;88.20;36.42;;;15.00;99.90;;;;;;4963871;29;20063;-86
2021/06/06 00:37:42;;;;;;;76.45;35.90;;;15.00;99.90;;;;;;4973546;29;20086;-87
2021/06/06 00:40:11;;;;;;;80.13;37.03;;;15.00;99.90;;;;;;4972769;29;20059;-87
2021/06/06 00:42:39;;;;;;;76.30;37.67;;;14.90;99.90;;;;;;4973226;29;20090;-87
2021/06/06 00:45:11;;;;;;;76.50;36.38;;;14.90;99.90;;;;;;4957446;29;20106;-87
2021/06/06 00:47:38;;;;;;;76.70;35.72;;;15.00;99.90;;;;;;4973449;29;20372;-87
2021/06/06 00:50:09;;;;;;;75.05;35.80;;;14.90;99.90;;;;;;4957284;29;20039;-86
2021/06/06 00:52:37;;;;;;;80.82;36.13;;;14.90;99.90;;;;;;4990200;29;21051;-88
2021/06/06 00:55:07;;;;;;;68.30;36.05;;;14.90;99.90;;;;;;4972573;29;20046;-87
2021/06/06 00:57:36;;;;;;;65.35;34.83;;;14.80;99.90;;;;;;4979939;29;20043;-87
2021/06/06 01:00:21;;;;;;;78.50;37.58;;;14.80;99.90;;;;;;4988631;29;20043;-86
2021/06/06 01:02:49;;;;;;;91.95;39.30;;;14.80;99.90;;;;;;4988748;28;20122;-87
2021/06/06 01:05:31;;;;;;;76.22;38.15;;;14.80;99.90;;;;;;4988471;29;20051;-87
2021/06/06 01:08:02;;;;;;;69.75;36.53;;;14.90;99.90;;;;;;4988014;29;20038;-86
2021/06/06 01:10:29;;;;;;;86.28;38.15;;;14.80;99.90;;;;;;4988798;29;20039;-87
2021/06/06 01:13:03;;;;;;;93.72;38.53;;;14.70;99.90;;;;;;4957089;29;20046;-86
2021/06/06 01:15:34;;;;;;;66.90;34.72;;;14.70;99.90;;;;;;4990190;28;20086;-87
2021/06/06 01:18:14;;;;;;;68.07;35.13;;;14.70;99.90;;;;;;4989819;28;20086;-87
2021/06/06 01:20:56;;;;;;;69.90;34.50;;;14.70;99.90;;;;;;4988972;29;20043;-87
2021/06/06 01:24:00;;;;;;;65.30;32.95;;;14.70;99.90;;;;;;4973003;29;20105;-87
2021/06/06 01:26:32;;;;;;;66.57;32.28;;;14.70;99.90;;;;;;4988726;29;20043;-86
2021/06/06 01:29:33;;;;;;;72.35;32.13;;;14.70;99.90;;;;;;4988286;29;20039;-86
2021/06/06 01:32:18;;;;;;;54.78;30.45;;;14.70;99.90;;;;;;4988541;29;20046;-87
2021/06/06 01:34:53;;;;;;;61.60;29.75;;;14.70;99.90;;;;;;4988994;29;20118;-87
2021/06/06 01:37:21;;;;;;;60.72;30.40;;;14.70;99.90;;;;;;4988766;29;20036;-87
2021/06/06 01:39:53;;;;;;;56.50;30.35;;;14.70;99.90;;;;;;4973387;29;20511;-87
2021/06/06 01:42:33;;;;;;;58.97;30.33;;;14.60;99.90;;;;;;4988843;29;20046;-87
2021/06/06 01:45:07;;;;;;;57.35;29.98;;;14.60;99.90;;;;;;4988654;29;20059;-86
2021/06/06 01:47:37;;;;;;;61.95;30.90;;;14.60;99.90;;;;;;4989223;29;20075;-88
2021/06/06 01:50:13;;;;;;;73.03;32.95;;;14.60;99.90;;;;;;4988446;29;20038;-87
2021/06/06 01:52:42;;;;;;;60.42;30.85;;;14.60;99.90;;;;;;4988377;29;20511;-87
2021/06/06 01:55:12;;;;;;;76.15;34.45;;;14.60;99.90;;;;;;4972263;29;20042;-87
2021/06/06 01:57:41;;;;;;;73.70;35.20;;;14.60;99.90;;;;;;4988030;29;20058;-87
2021/06/06 02:00:15;;;;;;;84.95;36.03;;;14.60;99.90;;;;;;4987729;29;20043;-87
2021/06/06 02:02:42;;;;;;;80.45;35.45;;;14.50;99.90;;;;;;4989348;28;20043;-87
2021/06/06 02:05:14;;;;;;;67.90;34.15;;;14.50;99.90;;;;;;4956302;29;20495;-87
2021/06/06 02:07:43;;;;;;;68.93;34.38;;;14.50;99.90;;;;;;4988311;29;20538;-87
2021/06/06 02:10:15;;;;;;;64.53;32.33;;;14.60;99.90;;;;;;4988996;28;20035;-86
2021/06/06 02:12:47;;;;;;;64.60;32.60;;;14.50;99.90;;;;;;4989405;28;20039;-86
2021/06/06 02:15:25;;;;;;;59.88;31.23;;;14.60;99.90;;;;;;4989605;28;20049;-87
2021/06/06 02:17:54;;;;;;;63.92;31.95;;;14.50;99.90;;;;;;4975552;29;20411;-86
2021/06/06 02:20:24;;;;;;;64.22;30.38;;;14.50;99.90;;;;;;4991160;29;20035;-86
2021/06/06 02:22:53;;;;;;;62.40;32.13;;;14.50;99.90;;;;;;4991516;29;20460;-86
2021/06/06 02:25:21;;;;;;;65.07;32.55;;;14.50;99.90;;;;;;4975042;29;20035;-86
2021/06/06 02:28:06;;;;;;;63.00;32.08;;;14.50;99.90;;;;;;4975479;29;20208;-86
2021/06/06 02:30:41;;;;;;;60.13;30.65;;;14.50;99.90;;;;;;4991650;29;20039;-86
2021/06/06 02:33:38;;;;;;;82.45;34.83;;;14.40;99.90;;;;;;4992029;28;20051;-87
2021/06/06 02:36:15;;;;;;;86.28;33.85;;;14.40;99.90;;;;;;4991597;29;20043;-86
2021/06/06 02:39:00;;;;;;;64.88;32.63;;;14.40;99.90;;;;;;4991415;29;20065;-88
2021/06/06 02:42:02;;;;;;;68.13;31.65;;;14.30;99.90;;;;;;4992105;28;20035;-86
2021/06/06 02:45:00;;;;;;;67.32;31.27;;;14.30;99.90;;;;;;4978306;29;20496;-87
2021/06/06 02:47:32;;;;;;;63.97;31.55;;;14.40;99.90;;;;;;4991063;29;20043;-87
2021/06/06 02:50:11;;;;;;;65.72;32.13;;;14.40;99.90;;;;;;4991286;29;20053;-87
2021/06/06 02:52:46;;;;;;;72.15;32.40;;;14.40;99.90;;;;;;4990908;29;20038;-87
2021/06/06 02:55:23;;;;;;;69.32;31.02;;;14.40;99.90;;;;;;4991853;28;20502;-86
2021/06/06 02:57:59;;;;;;;59.10;29.95;;;14.30;99.90;;;;;;4991076;29;20054;-87
2021/06/06 03:00:37;;;;;;;64.10;29.90;;;14.40;99.90;;;;;;4991018;29;20106;-87
2021/06/06 03:03:11;;;;;;;67.88;29.83;;;14.40;99.90;;;;;;4993326;28;20043;-87
2021/06/06 03:05:39;;;;;;;67.78;29.30;;;14.40;99.90;;;;;;4992412;28;20035;-88
2021/06/06 03:08:09;;;;;;;62.92;28.17;;;14.40;99.90;;;;;;5010419;28;20121;-89
2021/06/06 03:10:38;;;;;;;76.82;30.05;;;14.40;99.90;;;;;;5002324;28;20035;-88
2021/06/06 03:13:24;;;;;;;82.90;30.92;;;14.40;99.90;;;;;;4990896;29;20043;-88
2021/06/06 03:15:59;;;;;;;72.28;30.33;;;14.50;99.90;;;;;;4991439;28;20484;-87
2021/06/06 03:18:29;;;;;;;80.93;31.70;;;14.40;99.90;;;;;;4989857;29;20039;-86
2021/06/06 03:21:18;;;;;;;79.80;30.02;;;14.30;99.90;;;;;;4990554;29;20069;-87
2021/06/06 03:23:51;;;;;;;63.95;28.02;;;14.40;99.90;;;;;;4990423;29;20044;-87
2021/06/06 03:26:19;;;;;;;65.32;28.90;;;14.40;99.90;;;;;;4988617;28;20035;-88
2021/06/06 03:28:46;;;;;;;71.57;29.05;;;14.40;99.90;;;;;;4974477;29;20059;-87
2021/06/06 03:31:28;;;;;;;72.85;29.45;;;14.30;99.90;;;;;;4974202;29;20055;-87
2021/06/06 03:34:01;;;;;;;75.97;32.25;;;14.40;99.90;;;;;;4989978;29;20468;-87
2021/06/06 03:36:34;;;;;;;87.95;33.88;;;14.30;99.90;;;;;;4989839;29;20043;-87
2021/06/06 03:39:04;;;;;;;89.35;33.55;;;14.30;99.90;;;;;;4990057;29;20090;-87
2021/06/06 03:41:31;;;;;;;77.35;33.80;;;14.30;99.90;;;;;;4973816;29;20036;-87
2021/06/06 03:43:58;;;;;;;79.18;33.58;;;14.30;99.90;;;;;;4990760;28;20172;-88
2021/06/06 03:46:27;;;;;;;74.10;34.83;;;14.30;99.90;;;;;;4957669;29;20043;-88
2021/06/06 03:48:55;;;;;;;74.10;34.38;;;14.30;99.90;;;;;;4990003;29;20035;-88
2021/06/06 03:51:23;;;;;;;65.88;33.08;;;14.30;99.90;;;;;;4990215;29;20039;-87
2021/06/06 03:53:50;;;;;;;68.75;33.35;;;14.40;99.90;;;;;;4990635;29;20460;-88
2021/06/06 03:56:18;;;;;;;70.45;32.92;;;14.30;99.90;;;;;;4974577;29;20035;-87
2021/06/06 03:58:45;;;;;;;67.00;33.67;;;14.30;99.90;;;;;;4974115;29;20102;-87
2021/06/06 04:01:12;;;;;;;63.65;32.17;;;14.30;99.90;;;;;;4974486;29;20036;-88
2021/06/06 04:03:38;;;;;;;65.55;33.25;;;14.20;99.90;;;;;;4989577;29;20467;-88
2021/06/06 04:06:06;;;;;;;68.95;32.88;;;14.20;99.90;;;;;;4974752;29;20069;-88
2021/06/06 04:08:34;;;;;;;65.55;32.05;;;14.20;99.90;;;;;;4989987;29;20075;-87
2021/06/06 04:11:01;;;;;;;64.95;32.25;;;14.20;99.90;;;;;;4974479;29;20055;-87
2021/06/06 04:13:29;;;;;;;69.63;33.67;;;14.20;99.90;;;;;;4989691;29;20043;-86
2021/06/06 04:15:58;;;;;;;70.50;33.30;;;14.20;99.90;;;;;;4973634;29;20122;-86
2021/06/06 04:18:28;;;;;;;55.85;31.38;;;14.20;99.90;;;;;;4973099;29;20166;-86
2021/06/06 04:20:56;;;;;;;58.95;31.65;;;14.20;99.90;;;;;;4989543;29;20042;-87
2021/06/06 04:23:23;;;;;;;55.28;31.88;;;14.20;99.90;;;;;;4973377;29;20070;-86
2021/06/06 04:25:52;;;;;;;53.45;31.27;;;14.20;99.90;;;;;;4957880;29;20407;-86
2021/06/06 04:28:21;;;;;;;55.42;30.65;;;14.20;99.90;;;;;;4988860;29;20047;-85
2021/06/06 04:30:49;;;;;;;55.88;29.98;;;14.20;99.90;;;;;;4989004;29;20495;-86
2021/06/06 04:33:16;;;;;;;46.25;28.48;;;14.20;99.90;;;;;;4957592;29;20063;-86
2021/06/06 04:35:44;;;;;;;50.55;28.02;;;14.20;99.90;;;;;;4989243;29;20521;-86
2021/06/06 04:38:15;;;;;;;49.08;27.80;;;14.20;99.90;;;;;;4988688;28;20062;-86
2021/06/06 04:40:43;;;;;;;41.92;26.05;;;14.20;99.90;;;;;;4988549;29;20118;-85
2021/06/06 04:43:09;;;;;;;44.28;26.73;;;14.20;99.90;;;;;;4973164;29;20146;-87
2021/06/06 04:45:37;;;;;;;41.90;25.95;;;14.10;99.90;;;;;;4988755;29;20062;-86
2021/06/06 04:48:27;;;;;;;36.90;24.83;;;14.20;99.90;;;;;;4973390;29;20035;-87
2021/06/06 04:50:59;;;;;;;37.47;24.83;;;14.20;99.90;;;;;;4989051;29;20043;-86
2021/06/06 04:53:27;;;;;;;33.38;23.02;;;14.10;99.90;;;;;;4988609;29;20135;-86
2021/06/06 04:55:56;;;;;;;29.42;20.40;;;14.10;99.90;;;;;;4989341;29;20062;-87
2021/06/06 04:58:25;;;;;;;35.42;22.00;;;14.10;99.90;;;;;;4957893;29;20055;-86
2021/06/06 05:00:54;;;;;;;30.75;20.60;;;14.10;99.90;;;;;;4988976;29;20064;-88
2021/06/06 05:03:21;;;;;;;29.83;20.55;;;14.10;99.90;;;;;;4988431;29;20039;-86
2021/06/06 05:05:50;;;;;;;32.67;21.35;;;14.10;99.90;;;;;;4973064;29;20071;-87
2021/06/06 05:08:19;;;;;;;33.83;21.65;;;14.00;99.90;;;;;;4988524;29;20046;-86
2021/06/06 05:10:46;;;;;;;35.55;21.67;;;14.00;99.90;;;;;;4988605;29;20042;-87
2021/06/06 05:13:15;;;;;;;37.60;24.30;;;14.10;99.90;;;;;;4956547;29;20562;-87
2021/06/06 05:15:42;;;;;;;38.60;24.02;;;14.10;99.90;;;;;;4988470;29;20123;-86
2021/06/06 05:18:09;;;;;;;41.90;23.95;;;14.10;99.90;;;;;;4988811;29;20035;-86
2021/06/06 05:20:40;;;;;;;41.97;24.05;;;14.10;99.90;;;;;;4988403;29;20376;-86
2021/06/06 05:23:07;;;;;;;35.92;24.10;;;14.10;99.90;;;;;;4989067;29;20039;-87
2021/06/06 05:25:36;;;;;;;41.65;25.55;;;14.10;99.90;;;;;;4988438;29;20047;-86
2021/06/06 05:28:05;;;;;;;44.13;27.00;;;14.10;99.90;;;;;;4972528;29;20392;-86
2021/06/06 05:30:36;;;;;;;46.10;26.55;;;14.10;99.90;;;;;;4988213;29;20039;-86
2021/06/06 05:33:04;;;;;;;38.45;24.00;;;14.10;99.90;;;;;;4988814;29;20265;-87
2021/06/06 05:35:40;;;;;;;39.15;24.13;;;14.00;99.90;;;;;;4987869;29;20407;-85
2021/06/06 05:38:10;;;;;;;36.03;23.10;;;14.10;99.90;;;;;;4972222;29;20043;-86
2021/06/06 05:40:38;;;;;;;39.88;23.20;;;14.10;99.90;;;;;;4987507;29;20395;-86
2021/06/06 05:43:06;;;;;;;36.47;21.88;;;14.10;99.90;;;;;;4988359;29;20042;-86
2021/06/06 05:45:34;;;;;;;40.47;22.75;;;14.20;99.90;;;;;;4988221;29;20050;-87
2021/06/06 05:48:03;;;;;;;36.30;22.85;;;14.20;99.90;;;;;;4988230;29;20061;-86
2021/06/06 05:50:32;;;;;;;41.20;23.02;;;14.20;99.90;;;;;;4989892;28;20042;-85
2021/06/06 05:52:59;;;;;;;42.28;23.27;;;14.10;99.90;;;;;;4992267;29;20399;-86
2021/06/06 05:55:26;;;;;;;42.47;24.30;;;14.10;99.90;;;;;;4960053;29;20039;-85
2021/06/06 05:57:53;;;;;;;47.33;24.67;;;14.00;99.90;;;;;;4960040;29;20599;-86
2021/06/06 06:00:25;;;;;;;45.97;24.80;;;14.10;99.90;;;;;;4992085;29;20047;-86
2021/06/06 06:02:52;;;;;;;44.28;25.65;;;14.10;99.90;;;;;;4991683;29;20034;-86
2021/06/06 06:05:19;;;;;;;43.53;25.30;;;14.10;99.90;;;;;;4975601;29;20086;-86
2021/06/06 06:07:46;;;;;;;49.00;25.58;;;14.10;99.90;;;;;;4991406;29;20114;-86
2021/06/06 06:10:18;;;;;;;47.42;24.75;;;14.10;99.90;;;;;;4991809;29;20039;-86
2021/06/06 06:12:46;;;;;;;40.83;23.98;;;14.10;99.90;;;;;;4991783;29;20050;-86
2021/06/06 06:15:14;;;;;;;39.38;23.20;;;14.10;99.90;;;;;;4991361;29;20035;-86
2021/06/06 06:17:41;;;;;;;39.63;24.25;;;14.10;99.90;;;;;;4991154;29;20039;-85
2021/06/06 06:20:11;;;;;;;39.03;22.55;;;14.20;99.90;;;;;;4975799;29;20039;-85
2021/06/06 06:22:38;;;;;;;39.88;23.52;;;14.20;99.90;;;;;;4991117;29;20066;-85
2021/06/06 06:25:07;;;;;;;38.22;23.15;;;14.20;99.90;;;;;;4975003;29;20035;-86
2021/06/06 06:27:35;;;;;;;39.35;22.98;;;14.10;99.90;;;;;;4974939;29;20519;-88
2021/06/06 06:30:07;;;;;;;35.15;21.67;;;14.20;99.90;;;;;;4960092;29;20178;-90
2021/06/06 06:32:34;;;;;;;28.27;18.52;;;14.20;99.90;;;;;;4991362;29;20043;-87
2021/06/06 06:35:01;;;;;;;32.63;19.70;;;14.10;99.90;;;;;;4975878;29;20059;-86
2021/06/06 06:37:28;;;;;;;28.77;18.83;;;14.20;99.90;;;;;;4959965;29;20035;-87
2021/06/06 06:39:54;;;;;;;27.52;17.77;;;14.20;99.90;;;;;;4959762;29;20031;-87
2021/06/06 06:42:21;;;;;;;27.23;16.88;;;14.20;99.90;;;;;;4959938;29;20041;-88
2021/06/06 06:44:48;;;;;;;27.05;15.60;;;14.20;99.90;;;;;;4975380;29;20047;-87
2021/06/06 06:47:15;;;;;;;24.70;15.88;;;14.20;99.90;;;;;;4975299;29;20043;-87
2021/06/06 06:49:43;;;;;;;24.80;16.20;;;14.20;99.90;;;;;;4974678;29;20042;-89
2021/06/06 06:52:11;;;;;;;20.75;13.68;;;14.30;99.90;;;;;;4975494;29;20059;-87
2021/06/06 06:54:39;;;;;;;21.38;13.90;;;14.20;99.90;;;;;;4980868;28;20046;-86
2021/06/06 06:57:06;;;;;;;20.95;14.10;;;14.20;99.90;;;;;;4995729;28;20455;-87
2021/06/06 06:59:33;;;;;;;17.42;12.02;;;14.20;99.90;;;;;;4978043;28;20138;-87
2021/06/06 07:02:03;;;;;;;15.38;11.48;;;14.30;99.90;;;;;;4978680;28;20043;-88
2021/06/06 07:04:30;;;;;;;19.70;12.50;;;14.30;99.90;;;;;;4984272;28;20042;-87
2021/06/06 07:06:57;;;;;;;17.17;12.13;;;14.30;99.90;;;;;;4974072;28;20137;-87
2021/06/06 07:09:26;;;;;;;17.42;10.77;;;14.20;99.90;;;;;;4980411;28;20039;-87
2021/06/06 07:11:55;;;;;;;16.55;11.45;;;14.20;99.90;;;;;;5002462;28;20045;-87
2021/06/06 07:14:24;;;;;;;15.70;11.15;;;14.20;99.90;;;;;;4985176;28;20092;-89
2021/06/06 07:16:51;;;;;;;19.52;11.10;;;14.30;99.90;;;;;;4998507;28;20034;-88
2021/06/06 07:19:18;;;;;;;14.50;9.85;;;14.30;99.90;;;;;;4994385;28;20035;-86
2021/06/06 07:21:45;;;;;;;18.08;10.82;;;14.40;99.90;;;;;;4977747;28;20468;-87
2021/06/06 07:24:13;;;;;;;12.63;9.85;;;14.40;99.90;;;;;;4978120;28;20039;-85
2021/06/06 07:26:44;;;;;;;17.00;10.23;;;14.40;99.90;;;;;;4992728;28;20045;-85
2021/06/06 07:29:32;;;;;;;14.45;10.02;;;14.40;99.90;;;;;;5002057;28;20042;-85
2021/06/06 07:32:00;;;;;;;12.70;9.25;;;14.40;99.90;;;;;;5006471;28;20081;-84
2021/06/06 07:34:29;;;;;;;13.15;8.88;;;14.40;99.90;;;;;;5012910;28;20046;-87
2021/06/06 07:37:01;;;;;;;14.32;9.38;;;14.40;99.90;;;;;;4996949;28;20121;-87
2021/06/06 07:39:37;;;;;;;13.57;8.75;;;14.40;99.90;;;;;;5018058;28;20038;-88
2021/06/06 07:42:09;;;;;;;12.77;9.05;;;14.50;99.90;;;;;;5004275;28;20043;-87
2021/06/06 07:44:36;;;;;;;10.95;7.93;;;14.40;99.90;;;;;;5005449;28;20122;-88
2021/06/06 07:47:06;;;;;;;10.43;8.23;;;14.50;99.90;;;;;;4973456;28;20276;-88
2021/06/06 07:49:39;;;;;;;11.27;8.75;;;14.50;99.90;;;;;;4998630;28;20038;-89
2021/06/06 07:52:07;;;;;;;13.38;8.98;;;14.50;99.90;;;;;;4997417;28;20034;-88
2021/06/06 07:54:34;;;;;;;14.52;10.00;;;14.50;99.90;;;;;;5013118;28;20042;-88
2021/06/06 07:57:03;;;;;;;15.00;9.38;;;14.50;99.90;;;;;;5006856;28;20099;-88
2021/06/06 07:59:33;;;;;;;12.30;9.70;;;14.40;99.90;;;;;;5001434;28;20515;-87
2021/06/06 08:02:00;;;;;;;13.43;9.02;;;14.40;99.90;;;;;;4961605;29;20063;-87
2021/06/06 08:04:27;;;;;;;11.90;8.93;;;14.50;99.90;;;;;;4970975;28;20077;-87
2021/06/06 08:06:54;;;;;;;13.65;9.25;;;14.40;99.90;;;;;;4952715;29;20500;-88
2021/06/06 08:09:21;;;;;;;13.90;9.60;;;14.40;99.90;;;;;;4964405;28;20063;-90
2021/06/06 08:11:48;;;;;;;11.70;9.13;;;14.40;99.90;;;;;;4955916;28;20515;-89
2021/06/06 08:14:15;;;;;;;14.68;9.68;;;14.40;99.90;;;;;;4990706;28;20044;-87
2021/06/06 08:16:42;;;;;;;13.23;9.77;;;14.40;99.90;;;;;;4992875;28;20045;-87
2021/06/06 08:19:09;;;;;;;12.95;9.65;;;14.40;99.90;;;;;;4969598;29;20035;-88
2021/06/06 08:21:41;;;;;;;13.80;10.07;;;14.50;99.90;;;;;;4969705;29;20039;-89
2021/06/06 08:24:09;;;;;;;12.77;9.35;;;14.40;99.90;;;;;;4973923;29;20143;-88
2021/06/06 08:26:36;;;;;;;18.63;11.10;;;14.50;99.90;;;;;;4957226;28;20113;-88
2021/06/06 08:29:04;;;;;;;16.92;11.07;;;14.50;99.90;;;;;;4992686;28;20070;-88
2021/06/06 08:31:34;;;;;;;13.18;10.20;;;14.50;99.90;;;;;;4981639;29;20039;-89
2021/06/06 08:34:01;;;;;;;15.30;10.77;;;14.50;99.90;;;;;;4973624;29;20114;-88
2021/06/06 08:36:35;;;;;;;15.60;11.40;;;14.50;99.90;;;;;;4973447;29;20130;-89
2021/06/06 08:39:07;;;;;;;16.13;10.27;;;14.50;99.90;;;;;;4982811;28;20109;-89
2021/06/06 08:41:46;;;;;;;12.80;9.77;;;14.50;99.90;;;;;;5000512;28;20077;-89
2021/06/06 08:44:36;;;;;;;11.13;7.90;;;14.50;99.90;;;;;;4993497;28;20062;-89
2021/06/06 08:47:10;;;;;;;11.45;8.80;;;14.50;99.90;;;;;;4991986;28;20050;-88
2021/06/06 08:49:51;;;;;;;11.40;8.05;;;14.50;99.90;;;;;;4980156;29;20103;-87
2021/06/06 08:52:43;;;;;;;11.90;8.77;;;14.50;99.90;;;;;;4987453;28;20046;-87
2021/06/06 08:55:28;;;;;;;13.48;9.07;;;14.60;99.90;;;;;;4976359;29;20035;-87
2021/06/06 08:58:22;;;;;;;14.23;9.77;;;14.50;99.90;;;;;;4992374;28;20043;-87
2021/06/06 09:00:57;;;;;;;11.45;8.95;;;14.60;99.90;;;;;;5007879;28;20053;-88
2021/06/06 09:03:29;;;;;;;10.90;8.93;;;14.60;99.90;;;;;;5008300;28;20475;-88
2021/06/06 09:06:04;;;;;;;11.13;8.70;;;14.70;99.90;;;;;;4991260;28;20039;-88
2021/06/06 09:08:34;;;;;;;10.68;8.10;;;14.70;99.90;;;;;;5007197;28;20114;-90
2021/06/06 09:11:05;;;;;;;10.10;8.23;;;14.80;99.90;;;;;;4988913;29;20126;-89
2021/06/06 09:13:32;;;;;;;8.88;7.28;;;14.80;99.90;;;;;;5005786;28;20125;-89
2021/06/06 09:16:18;;;;;;;9.18;6.43;;;14.80;99.90;;;;;;5008366;28;20062;-89
2021/06/06 09:18:47;;;;;;;7.65;6.68;;;14.90;99.90;;;;;;5008861;28;20171;-88
2021/06/06 09:21:18;;;;;;;8.18;6.60;;;14.90;99.90;;;;;;4989280;28;20402;-88
2021/06/06 09:23:47;;;;;;;8.65;5.90;;;14.90;99.90;;;;;;5004705;28;20039;-86
2021/06/06 09:26:17;;;;;;;6.93;5.82;;;14.80;99.90;;;;;;4982905;29;20126;-89
2021/06/06 09:28:48;;;;;;;7.20;5.53;;;14.80;99.90;;;;;;5012465;28;20035;-89
2021/06/06 09:31:18;;;;;;;6.88;5.65;;;14.80;99.90;;;;;;5013460;28;20430;-90
2021/06/06 09:34:04;;;;;;;7.07;5.63;;;14.80;99.90;;;;;;5013167;28;20505;-88
2021/06/06 09:36:31;;;;;;;6.68;5.45;;;14.70;99.90;;;;;;5007434;28;20035;-88
2021/06/06 09:39:01;;;;;;;7.95;6.30;;;14.70;99.90;;;;;;5005486;28;20035;-88
2021/06/06 09:41:34;;;;;;;7.13;5.85;;;14.80;99.90;;;;;;4997175;28;20050;-87
2021/06/06 09:44:18;;;;;;;7.15;5.80;;;14.80;99.90;;;;;;5020764;28;20034;-89
2021/06/06 09:47:13;;;;;;;10.00;6.45;;;14.80;99.90;;;;;;5031131;28;20073;-89
2021/06/06 09:49:46;;;;;;;8.73;6.60;;;14.80;99.90;;;;;;5008158;28;20492;-89
2021/06/06 09:52:13;;;;;;;7.28;6.30;;;14.80;99.90;;;;;;4976600;29;20291;-89
2021/06/06 09:54:42;;;;;;;9.60;7.03;;;14.90;99.90;;;;;;4996468;28;20062;-89
2021/06/06 09:57:19;;;;;;;9.30;6.97;;;14.90;99.90;;;;;;4992517;29;20039;-88
2021/06/06 09:59:46;;;;;;;10.40;7.13;;;14.90;99.90;;;;;;4992899;29;20047;-88
2021/06/06 10:02:30;;;;;;;10.95;7.38;;;14.90;99.90;;;;;;4976885;29;20499;-89
2021/06/06 10:05:30;;;;;;;10.55;7.20;;;15.00;99.90;;;;;;4991994;29;20039;-89
2021/06/06 10:08:00;;;;;;;9.70;7.03;;;15.00;99.90;;;;;;4986461;28;20066;-89
2021/06/06 10:10:33;;;;;;;9.00;6.90;;;15.10;99.90;;;;;;5011834;28;20062;-89
2021/06/06 10:13:04;;;;;;;10.20;7.20;;;15.10;99.90;;;;;;5011226;28;20402;-89
2021/06/06 10:15:46;;;;;;;7.75;5.53;;;15.20;99.90;;;;;;4998332;28;20129;-88
2021/06/06 10:18:22;;;;;;;8.40;5.90;;;15.20;99.90;;;;;;5011243;28;20114;-91
2021/06/06 10:20:54;;;;;;;8.43;5.80;;;15.30;99.90;;;;;;5003038;28;20110;-89
2021/06/06 10:23:29;;;;;;;9.40;5.45;;;15.40;99.90;;;;;;4991971;29;20035;-93
2021/06/06 10:26:08;;;;;;;8.30;5.53;;;15.50;99.90;;;;;;4999408;28;20512;-89
2021/06/06 10:28:39;;;;;;;6.57;5.45;;;15.50;99.90;;;;;;4992676;28;20038;-90
2021/06/06 10:31:09;;;;;;;8.95;6.07;;;15.50;99.90;;;;;;4991484;29;20035;-89
2021/06/06 10:33:49;;;;;;;7.65;5.90;;;15.60;99.90;;;;;;4993084;28;20050;-88
2021/06/06 10:36:19;;;;;;;7.05;6.03;;;15.60;99.90;;;;;;4997715;28;20069;-89
2021/06/06 10:38:47;;;;;;;7.03;5.68;;;15.60;99.90;;;;;;5014191;28;20045;-90
2021/06/06 10:41:28;;;;;;;7.50;6.30;;;15.70;99.90;;;;;;5031552;28;20049;-89
2021/06/06 10:43:59;;;;;;;7.00;5.25;;;15.70;99.90;;;;;;5030252;28;20505;-89
2021/06/06 10:46:33;;;;;;;7.20;5.85;;;15.70;99.90;;;;;;5020844;28;20487;-89
2021/06/06 10:49:24;;;;;;;6.93;5.85;;;15.80;99.90;;;;;;5010881;28;20035;-89
2021/06/06 10:52:00;;;;;;;7.47;5.82;;;15.80;99.90;;;;;;5010527;28;20079;-89
2021/06/06 10:54:36;;;;;;;6.82;5.63;;;15.90;99.90;;;;;;5010804;28;20045;-89
2021/06/06 10:57:25;;;;;;;9.70;6.55;;;15.90;99.90;;;;;;4994437;28;20593;-90
2021/06/06 10:59:55;;;;;;;6.95;5.88;;;16.10;99.90;;;;;;5010439;28;20062;-88
2021/06/06 11:02:51;;;;;;;7.97;5.53;;;16.30;99.90;;;;;;5012146;28;20045;-90
2021/06/06 11:06:06;;;;;;;7.78;5.75;;;16.30;99.90;;;;;;5009983;28;20479;-90
2021/06/06 11:08:44;;;;;;;8.15;6.43;;;16.40;99.90;;;;;;4991421;28;20066;-90
2021/06/06 11:11:33;;;;;;;8.05;6.47;;;16.40;99.90;;;;;;5030223;28;20715;-90
2021/06/06 11:14:09;;;;;;;8.68;7.30;;;16.40;99.90;;;;;;5029806;28;20095;-91
2021/06/06 11:16:47;;;;;;;8.63;7.43;;;16.40;99.90;;;;;;5018766;28;20038;-89
2021/06/06 11:19:20;;;;;;;8.57;6.78;;;16.40;99.90;;;;;;5011507;28;20064;-90
2021/06/06 11:22:12;;;;;;;8.25;6.00;;;16.40;99.90;;;;;;5010344;28;20073;-92
2021/06/06 11:24:42;;;;;;;8.93;6.28;;;16.30;99.90;;;;;;5010737;28;20138;-89
2021/06/06 11:27:12;;;;;;;7.72;5.88;;;16.30;99.90;;;;;;5010204;28;20149;-90
2021/06/06 11:29:55;;;;;;;6.80;5.20;;;16.20;99.90;;;;;;5010491;28;20046;-90
2021/06/06 11:32:40;;;;;;;6.47;4.82;;;16.20;99.90;;;;;;5010788;28;20049;-92
2021/06/06 11:35:19;;;;;;;8.10;5.18;;;16.30;99.90;;;;;;5010168;28;20078;-90
2021/06/06 11:37:49;;;;;;;6.70;4.90;;;16.30;99.90;;;;;;5001626;28;20090;-90
2021/06/06 11:40:27;;;;;;;6.68;4.30;;;16.30;99.90;;;;;;5021542;28;20038;-89
2021/06/06 11:43:29;;;;;;;5.57;4.00;;;16.20;99.90;;;;;;5029777;28;20037;-89
2021/06/06 11:46:10;;;;;;;5.18;4.00;;;16.20;99.90;;;;;;5005727;28;20495;-89
2021/06/06 11:48:45;;;;;;;5.22;3.95;;;16.20;99.90;;;;;;4997335;28;20046;-89
2021/06/06 11:51:39;;;;;;;4.93;3.22;;;16.30;99.90;;;;;;4986135;28;20114;-90
2021/06/06 11:54:32;;;;;;;4.95;3.35;;;16.20;99.90;;;;;;4997600;28;20486;-90
2021/06/06 11:57:09;;;;;;;4.25;3.20;;;16.10;99.90;;;;;;5003186;28;20046;-89
2021/06/06 12:00:08;;;;;;;4.47;3.05;;;16.20;99.90;;;;;;5006801;28;20093;-90
2021/06/06 12:02:37;;;;;;;4.45;3.30;;;16.10;99.90;;;;;;4988616;28;20480;-90
2021/06/06 12:05:13;;;;;;;3.67;2.40;;;16.10;99.90;;;;;;5002280;28;20042;-89
2021/06/06 12:07:43;;;;;;;3.85;2.90;;;16.00;99.90;;;;;;4999192;28;20440;-89
2021/06/06 12:10:28;;;;;;;4.63;3.40;;;16.10;99.90;;;;;;4982137;28;20035;-90
2021/06/06 12:12:58;;;;;;;4.00;3.10;;;16.20;99.90;;;;;;5001431;28;20041;-86
2021/06/06 12:15:35;;;;;;;3.95;2.58;;;16.30;99.90;;;;;;5005176;28;20039;-89
2021/06/06 12:18:19;;;;;;;3.67;2.42;;;16.40;99.90;;;;;;5009448;28;20045;-90
2021/06/06 12:20:55;;;;;;;4.80;2.50;;;16.40;99.90;;;;;;5000255;28;20039;-90
2021/06/06 12:23:53;;;;;;;3.28;2.30;;;16.50;99.90;;;;;;4991459;28;20055;-90
2021/06/06 12:26:33;;;;;;;3.60;2.80;;;16.50;99.90;;;;;;4986000;29;20118;-90
2021/06/06 12:29:00;;;;;;;3.35;2.00;;;16.50;99.90;;;;;;4989584;29;20050;-90
2021/06/06 12:31:29;;;;;;;3.45;2.45;;;16.60;99.90;;;;;;4989264;29;20400;-90
2021/06/06 12:34:09;;;;;;;3.88;2.42;;;16.70;99.90;;;;;;4989619;29;20466;-87
2021/06/06 12:36:37;;;;;;;3.38;2.47;;;16.70;99.90;;;;;;4974755;29;20047;-89
2021/06/06 12:39:08;;;;;;;4.22;2.47;;;16.80;99.90;;;;;;4995745;28;20387;-89
2021/06/06 12:41:42;;;;;;;3.80;2.30;;;16.80;99.90;;;;;;5005199;28;20034;-90
2021/06/06 12:44:11;;;;;;;3.53;2.20;;;16.80;99.90;;;;;;5008705;28;20090;-89
2021/06/06 12:46:52;;;;;;;3.33;2.35;;;16.80;99.90;;;;;;5007176;28;20050;-89
2021/06/06 12:49:31;;;;;;;3.17;2.47;;;16.80;99.90;;;;;;4980694;28;20042;-89
2021/06/06 12:51:58;;;;;;;4.18;2.40;;;16.70;99.90;;;;;;4993063;28;20035;-87
2021/06/06 12:54:31;;;;;;;3.85;2.83;;;16.60;99.90;;;;;;5008769;28;20125;-89
2021/06/06 12:57:14;;;;;;;3.55;2.40;;;16.50;99.90;;;;;;5008958;28;20035;-87
2021/06/06 12:59:42;;;;;;;3.72;2.55;;;16.50;99.90;;;;;;5008550;28;20046;-89
2021/06/06 13:02:24;;;;;;;3.58;2.70;;;16.40;99.90;;;;;;4985921;29;20062;-89